Accueil
METAR-TAF:

METAR-TAF

Aéroports :

Bagdad, Irak

Aéroport international de Bagdad

latitude: 33-15-45N, longitude: 44-14-04E, altitude: 35 m

Observation

Le bulletin a été fait il y a 10 minutes, à 18:30 UTC
Vent 9 kt de est/sud-est
Température 32°C
Humidité 23%
Pression 1005 hPa
Visibilité 10 km ou plus
pas de nuages en-dessous de 1500 mètres et pas de cumulonimbus.

METAR: ORBI 231830Z 11009KT CAVOK 32/08 Q1005

Heure: 21:40 (18:40 UTC)

Prévision

Le bulletin a été fait il y a 1 heure et 40 minutes, à 17:00 UTC
Prévision valable du 23 à 18 UTC au 24 à 18 UTC
Vent 8 kt de est/sud-est
Visibilité: 8000 m
Evoluant progressivement
du 23 à 20 UTC au 23 à 22 UTC
Evoluant progressivement
du 24 à 02 UTC au 24 à 04 UTC
Vent 12 kt de nord-ouest

TAF: ORBI 231700Z 2318/2418 12008KT 8000 NSC BECMG 2320/2322 4000DU BECMG 2402/2404 32012KT

Observations et prévisions météorologiques de plus de 4000 aéroports (messages METAR et TAF).

Les stations disponibles sont représentées par des disques jaunes et rouges sur la carte.

Passer la souris dessus pour voir le nom de la station.

Cliquer dessus pour voir les observations et prévisions météorologiques.

Pour changer de carte: cliquez sur les boutons verts avec une croix noire pour zoomer, sur le bouton vert avec un tiret pour effectuer un zoom arrière, ou sur les flèches vertes pour les cartes adjacentes.


METAR-TAF: